»·PEaware :: SWA2406 KSAN-KTUS

SWA2406 :: KSAN-KTUS

FLIGHT INFORMATION

Flight Status: Arrived
Operator:
Southwest Airlines
More flights by this operator :: More flights under this callsign
Pilot: Daniel W. (24238)
Aircraft: BOEING 737-700
(B737)
More flights by this aircraft type
Origin: KSAN San Diego Intl-Lindbergh
United States
Destination: KTUS Tucson Intl
United States
More flights between these airports :: More routes between these airports
Route: ZZOOO3 IPL J2 GBN DINGO5
File this flight plan on PilotEdge
Remarks: PBN / A1D1O1S2T1 NAV / RNVD1E1A1 RNP10 DAT / 1FANSE2PDC REG / N774SW EET / KZAB0027 CODE / AA7988
Altitude:
(Current/Filed)
33,000ft
Speed:
(Current/Filed)
461kts
Departed: 15-Aug-23 04:14 PM
Arrived: 15-Aug-23 05:11 PM
Distance/Time
Traveled:
319nm/0:57
Distance/Time
To Go:
Arrived

Flight Plot

Page will automatically refresh every two minutes.

Flight plan parsing failed; only flown route is shown


Map Options




Map Legend


Flown Route
Filed Route
Departure Airport
Arrival Airport
Navaid (VOR, NDB)
Fix

Horizontal Profiles

Position Reports

Time Latitude Longitude Heading Altitude Ground
Speed
15-Aug-23 15:38 32.733138 -117.196778 140 18ft 0kts
15-Aug-23 15:39 32.733138 -117.196778 140 18ft 0kts
15-Aug-23 15:40 32.733138 -117.196778 140 18ft 0kts
15-Aug-23 15:41 32.733138 -117.196778 140 18ft 0kts
15-Aug-23 15:42 32.733138 -117.196778 140 18ft 0kts
15-Aug-23 15:43 32.733138 -117.196778 140 18ft 0kts
15-Aug-23 15:44 32.733138 -117.196778 140 18ft 0kts
15-Aug-23 15:45 32.733138 -117.196778 140 18ft 0kts
15-Aug-23 15:46 32.733138 -117.196778 139 18ft 0kts
15-Aug-23 15:47 32.733138 -117.196778 139 18ft 0kts
15-Aug-23 15:48 32.733138 -117.196778 139 18ft 0kts
15-Aug-23 15:49 32.733138 -117.196778 139 18ft 0kts
15-Aug-23 15:50 32.733138 -117.196778 139 18ft 0kts
15-Aug-23 15:51 32.733138 -117.196778 139 18ft 0kts
15-Aug-23 15:52 32.733138 -117.196778 139 18ft 0kts
15-Aug-23 15:53 32.733138 -117.196778 139 18ft 0kts
15-Aug-23 15:54 32.733138 -117.196778 139 18ft 0kts
15-Aug-23 15:55 32.733138 -117.196778 139 18ft 0kts
15-Aug-23 15:56 32.733138 -117.196778 139 18ft 0kts
15-Aug-23 15:57 32.733138 -117.196778 139 18ft 0kts
15-Aug-23 15:58 32.733138 -117.196778 139 18ft 0kts
15-Aug-23 16:00 32.733138 -117.196778 139 18ft 0kts
15-Aug-23 16:01 32.733138 -117.196778 139 18ft 0kts
15-Aug-23 16:02 32.733138 -117.196778 139 18ft 0kts
15-Aug-23 16:03 32.733138 -117.196778 140 18ft 0kts
15-Aug-23 16:04 32.733138 -117.196778 140 18ft 0kts
15-Aug-23 16:05 32.733138 -117.196778 140 18ft 0kts
15-Aug-23 16:06 32.733302 -117.197205 55 13ft 2kts
15-Aug-23 16:07 32.733421 -117.197162 19 14ft 0kts
15-Aug-23 16:08 32.733421 -117.197162 19 14ft 0kts
15-Aug-23 16:09 32.733421 -117.197162 19 14ft 0kts
15-Aug-23 16:10 32.733545 -117.197109 19 20ft 5kts
15-Aug-23 16:11 32.732803 -117.190740 105 22ft 29kts
15-Aug-23 16:12 32.730441 -117.180980 106 16ft 31kts
15-Aug-23 16:13 32.729774 -117.175931 68 19ft 8kts
15-Aug-23 16:14 32.733209 -117.188133 286 23ft 141kts
15-Aug-23 16:15 32.746381 -117.241841 288 2125ft 215kts
15-Aug-23 16:16 32.764661 -117.317678 280 4713ft 250kts
15-Aug-23 16:17 32.721224 -117.365402 163 8122ft 256kts
15-Aug-23 16:18 32.671785 -117.305196 128 12081ft 260kts
15-Aug-23 16:19 32.629803 -117.230986 100 15219ft 292kts
15-Aug-23 16:20 32.620087 -117.120053 97 16856ft 363kts
15-Aug-23 16:21 32.609326 -116.998712 98 19677ft 379kts
15-Aug-23 16:21 32.605248 -116.892955 80 21693ft 399kts
15-Aug-23 16:23 32.635266 -116.739101 85 24219ft 417kts
15-Aug-23 16:24 32.647500 -116.600613 87 26051ft 429kts
15-Aug-23 16:25 32.660894 -116.457933 86 27714ft 442kts
15-Aug-23 16:26 32.674967 -116.311071 87 29229ft 453kts
15-Aug-23 16:26 32.686815 -116.185718 87 30305ft 462kts
15-Aug-23 16:27 32.701053 -116.033483 87 31602ft 465kts
15-Aug-23 16:29 32.717569 -115.855345 87 32847ft 469kts
15-Aug-23 16:30 32.731543 -115.702894 87 32835ft 462kts
15-Aug-23 16:30 32.743012 -115.575871 87 32809ft 464kts
15-Aug-23 16:31 32.752183 -115.423233 92 32812ft 462kts
15-Aug-23 16:32 32.754473 -115.270495 91 32840ft 463kts
15-Aug-23 16:33 32.757755 -115.117706 91 32834ft 461kts
15-Aug-23 16:35 32.761401 -114.940439 92 32829ft 459kts
15-Aug-23 16:35 32.763982 -114.814323 92 32826ft 458kts
15-Aug-23 16:36 32.766892 -114.663446 92 32827ft 457kts
15-Aug-23 16:37 32.769390 -114.512980 92 32822ft 456kts
15-Aug-23 16:38 32.771426 -114.362466 92 32830ft 456kts
15-Aug-23 16:39 32.773345 -114.211787 92 32822ft 455kts
15-Aug-23 16:40 32.775086 -114.061512 92 32829ft 454kts
15-Aug-23 16:41 32.783661 -113.912082 83 32833ft 458kts
15-Aug-23 16:42 32.806278 -113.762997 83 32823ft 457kts
15-Aug-23 16:43 32.827491 -113.613930 83 32824ft 456kts
15-Aug-23 16:44 32.848293 -113.465179 84 32821ft 455kts
15-Aug-23 16:45 32.868882 -113.316866 84 32825ft 454kts
15-Aug-23 16:46 32.889293 -113.168514 84 32829ft 454kts
15-Aug-23 16:47 32.909473 -113.020501 83 32860ft 455kts
15-Aug-23 16:48 32.929599 -112.871539 83 32881ft 456kts
15-Aug-23 16:49 32.949562 -112.722039 85 32269ft 459kts
15-Aug-23 16:50 32.939954 -112.571469 99 31316ft 457kts
15-Aug-23 16:51 32.923345 -112.421272 100 30395ft 457kts
15-Aug-23 16:52 32.872176 -112.287388 123 29423ft 443kts
15-Aug-23 16:53 32.810026 -112.164451 122 27064ft 424kts
15-Aug-23 16:54 32.750521 -112.046225 122 24554ft 410kts
15-Aug-23 16:55 32.692572 -111.931548 121 21896ft 397kts
15-Aug-23 16:56 32.636973 -111.821840 121 19444ft 380kts
15-Aug-23 16:57 32.583270 -111.716182 121 16896ft 369kts
15-Aug-23 16:58 32.531152 -111.613898 121 14519ft 356kts
15-Aug-23 16:59 32.478719 -111.515636 126 12003ft 348kts
15-Aug-23 17:00 32.437850 -111.419446 109 10893ft 301kts
15-Aug-23 17:01 32.411766 -111.332093 109 9953ft 272kts
15-Aug-23 17:02 32.387161 -111.249148 109 8363ft 273kts
15-Aug-23 17:03 32.363890 -111.167974 109 7192ft 259kts
15-Aug-23 17:04 32.315944 -111.110035 159 5908ft 255kts
15-Aug-23 17:05 32.251862 -111.082870 159 5143ft 228kts
15-Aug-23 17:06 32.206191 -111.045020 136 4735ft 185kts
15-Aug-23 17:07 32.171647 -111.004279 136 3918ft 157kts
15-Aug-23 17:08 32.143150 -110.970817 135 3224ft 142kts
15-Aug-23 17:09 32.116461 -110.939842 133 2592ft 97kts
15-Aug-23 17:10 32.112462 -110.932658 315 2616ft 13kts
15-Aug-23 17:11 32.116191 -110.937045 315 2599ft 22kts
15-Aug-23 17:12 32.118496 -110.937339 58 2587ft 1kts
15-Aug-23 17:13 32.118499 -110.937334 58 2587ft 0kts
15-Aug-23 17:14 32.118499 -110.937334 58 2587ft 0kts
15-Aug-23 17:15 32.118499 -110.937334 58 2587ft 0kts
15-Aug-23 17:16 32.118499 -110.937334 58 2587ft 0kts
15-Aug-23 17:17 32.118499 -110.937334 58 2587ft 0kts
15-Aug-23 17:18 32.118499 -110.937334 58 2587ft 0kts
15-Aug-23 17:19 32.118499 -110.937334 58 2587ft 0kts
15-Aug-23 17:20 32.118499 -110.937334 58 2587ft 0kts
15-Aug-23 17:21 32.118499 -110.937334 58 2587ft 0kts
15-Aug-23 17:22 32.118499 -110.937334 58 2587ft 0kts

Navigation Log

Ident Type
Flight plan parsing failed, navigation log unavailable